Airfield :
LOGIN :

Register | Disclaimer

   EN    FR    IT 

 










Legend :    VFR   Marginal VFR   IFR   Intensive IFR   Very Intensive IFR
Visi :
Ceiling :
>= 8 km
>= 3000ft
5 to 8 km
1000 to 3000 ft
1500m to 5 km
500 to 1000 ft
800 to 1500m
200 to 500 ft
< 800m
< 200 ft
Symbols :   Thunderstorms  Fog  Heavy snow  Heavy precipitations  Wind > 20 kt
SIGMETs :     Misc.  Thunderstorms  Icing  Turbulence  Mountain Waves  Volcanic Ashes






- Airport Elevation : 13 ft
- IATA code : SNR


LFRZ - St-Nazaire

CURRENT METAR :
  • 201430Z AUTO 24004KT 210V290 9999 -RA //////CB 14/13 Q1008 TEMPO VRB15G25KT 1400 TSRAGR BKN004 BKN030CB

EXPIRED METARs :
  • 201400Z AUTO 18004KT 8000 -RA FEW041/// BKN070/// OVC082/// ///CB 14/13 Q1008 TEMPO VRB15G25KT 1400 TSRAGR BKN004 BKN030CB
  • 201330Z AUTO 11005KT 060V140 1600 +RA BR FEW018/// SCT037/// BKN058/// ///CB 14/13 Q1009 TEMPO VRB15G25KT 1400 TSRAGR BKN004 BKN030CB
  • 201300Z AUTO 12008KT 9000 -RA VCTS FEW021/// SCT030/// BKN041/// ///CB 15/13 Q1009 TEMPO VRB15G25KT 1400 TSRAGR BKN004 BKN030CB
  • 201230Z AUTO 02006KT 340V050 8000 -TSRA ///CB 15/12 Q1009 TEMPO VRB15G25KT 1400 TSRAGR BKN004 BKN030CB
  • 201200Z AUTO 08006KT 040V110 9999 TS FEW023/// BKN049/// BKN068/// //////CB 19/14 Q1009 BECMG NSW SCT025 BKN050
  • 201130Z AUTO 07004KT 020V110 9999 FEW008/// BKN088/// OVC120/// //////CB 19/14 Q1009 BECMG SCT025 BKN050
  • 201100Z AUTO 04005KT 350V070 9999 BKN023 BKN044 BKN052 19/14 Q1009 TEMPO VRB15G25KT 1400 TSRAGR BKN012 BKN030CB
  • 201030Z AUTO 03005KT 340V070 9999 FEW020 SCT025 BKN130 18/14 Q1009 TEMPO VRB15G25KT 1400 TSRAGR BKN012 BKN030CB
  • 201000Z AUTO 01007KT 330V050 9999 FEW018 BKN130 18/13 Q1010 TEMPO 4000 SHRA SCT012 BKN040CB

TAF AMD TAF LFRZ
Valid from the 20 at 12:00 until the 21 at 12:00 UTC


201208Z 2012/2112 01007KT 9999 SCT025 BKN050
TEMPO 2012/2112 4000 SHRA BKN008 BKN035TCU
PROB40
TEMPO 2012/2018 VRB15G25KT 1400 TSRAGR BKN004 BKN030CB



MET'MAP, your aeronautical weather chart ! - Copyright ORBIFLY December 2007 - Disclaimer

ORBIFLY MET'MAP TEAM :

Programming & Development : Alexandra Zaïnal
Original concept : Baudouin d'Aumeries
Technical & hardware support : Manuel Goepfert
Assistance : Marc-Olivier Méhu




SOURCES & CREDITS :

   NOAA